Time;durP1;ratioP1;P1;durP2;ratioP2;P2;SDS_P1;SDS_P2;PMS_P1;PMS_P2;Temp;Humidity;BMP_temperature;BMP_pressure;BME280_temperature;BME280_humidity;BME280_pressure;Samples;Min_cycle;Max_cycle;Signal;HPM_P1;HPM_P2
2023/12/06 00:00:20;;;;;;;0.80;0.80;;;;;;;3.44;88.32;97324.66;5118910;28;20202;-70
2023/12/06 00:02:49;;;;;;;1.02;0.85;;;;;;;3.42;88.29;97332.03;5108412;28;20904;-69
2023/12/06 00:05:16;;;;;;;1.10;1.00;;;;;;;3.41;88.51;97325.00;5114129;28;20217;-69
2023/12/06 00:07:42;;;;;;;0.80;0.80;;;;;;;3.32;89.26;97333.06;5111888;28;20225;-69
2023/12/06 00:10:09;;;;;;;1.10;1.00;;;;;;;3.31;89.07;97336.75;5114838;28;20201;-69
2023/12/06 00:12:36;;;;;;;0.70;0.70;;;;;;;3.27;89.10;97335.41;5120866;27;20210;-69
2023/12/06 00:15:03;;;;;;;1.10;0.90;;;;;;;3.28;90.04;97331.75;5111362;28;20205;-69
2023/12/06 00:17:29;;;;;;;0.80;0.80;;;;;;;3.45;89.77;97331.69;5108988;27;20225;-69
2023/12/06 00:19:57;;;;;;;0.80;0.80;;;;;;;3.45;89.55;97332.50;5107919;28;20208;-69
2023/12/06 00:22:23;;;;;;;1.20;0.75;;;;;;;3.35;89.23;97339.91;5106745;28;20210;-69
2023/12/06 00:24:53;;;;;;;0.73;0.73;;;;;;;3.25;90.05;97340.09;5112219;28;20194;-69
2023/12/06 00:27:19;;;;;;;0.80;0.80;;;;;;;3.22;90.23;97337.81;5111523;28;20225;-69
2023/12/06 00:29:46;;;;;;;0.73;0.73;;;;;;;3.45;89.83;97337.88;5117114;27;20202;-69
2023/12/06 00:32:12;;;;;;;1.00;0.90;;;;;;;3.43;89.73;97349.75;5115319;27;20198;-69
2023/12/06 00:34:39;;;;;;;0.82;0.82;;;;;;;3.41;90.57;97335.72;5118444;27;20198;-70
2023/12/06 00:37:07;;;;;;;0.70;0.70;;;;;;;3.40;89.94;97339.38;5118519;27;20233;-69
2023/12/06 00:39:33;;;;;;;0.80;0.80;;;;;;;3.35;90.22;97338.06;5121979;27;20225;-69
2023/12/06 00:42:00;;;;;;;0.70;0.70;;;;;;;3.40;90.35;97339.38;5118035;27;20194;-69
2023/12/06 00:44:26;;;;;;;0.80;0.80;;;;;;;3.46;90.01;97341.38;5115670;27;20204;-69
2023/12/06 00:46:53;;;;;;;0.80;0.80;;;;;;;3.41;90.03;97347.25;5110799;27;20222;-69
2023/12/06 00:49:20;;;;;;;0.80;0.70;;;;;;;3.34;90.10;97349.78;5110239;27;20282;-69
2023/12/06 00:51:46;;;;;;;0.98;0.90;;;;;;;3.30;90.22;97345.78;5130900;27;20240;-70
2023/12/06 00:54:14;;;;;;;0.82;0.75;;;;;;;3.44;90.07;97346.06;5128984;27;20208;-69
2023/12/06 00:56:40;;;;;;;0.85;0.70;;;;;;;3.49;89.43;97351.72;5113129;27;20233;-69
2023/12/06 00:59:07;;;;;;;0.70;0.70;;;;;;;3.45;89.59;97345.88;5124701;27;20226;-69
2023/12/06 01:01:33;;;;;;;0.65;0.65;;;;;;;3.38;89.74;97348.41;5112922;27;20913;-69
2023/12/06 01:03:59;;;;;;;0.65;0.65;;;;;;;3.32;89.73;97365.16;5126950;27;20206;-69
2023/12/06 01:06:27;;;;;;;1.05;1.05;;;;;;;3.44;89.72;97357.59;5127146;27;20206;-69
2023/12/06 01:08:53;;;;;;;1.48;0.65;;;;;;;3.46;90.02;97360.09;5115049;27;20214;-69
2023/12/06 01:11:21;;;;;;;0.60;0.60;;;;;;;3.45;90.66;97361.09;5114975;27;20285;-69
2023/12/06 01:13:47;;;;;;;1.60;0.90;;;;;;;3.38;90.56;97364.47;5120893;27;20203;-70
2023/12/06 01:16:14;;;;;;;0.65;0.65;;;;;;;3.44;90.38;97372.81;5123660;27;20226;-70
2023/12/06 01:18:40;;;;;;;0.88;0.88;;;;;;;3.43;90.26;97371.13;5125360;27;20236;-69
2023/12/06 01:21:07;;;;;;;0.70;0.70;;;;;;;3.33;90.29;97369.50;5125198;27;20226;-69
2023/12/06 01:23:33;;;;;;;0.70;0.70;;;;;;;3.52;90.63;97368.25;5123087;27;20569;-69
2023/12/06 01:26:00;;;;;;;0.68;0.68;;;;;;;3.41;90.53;97379.34;5123510;27;20201;-69
2023/12/06 01:28:28;;;;;;;0.65;0.60;;;;;;;3.35;90.61;97385.38;5110869;27;20218;-69
2023/12/06 01:30:54;;;;;;;0.60;0.60;;;;;;;3.37;90.83;97380.69;5111851;27;20705;-70
2023/12/06 01:33:21;;;;;;;0.70;0.70;;;;;;;3.37;90.61;97378.84;5116018;27;20205;-69
2023/12/06 01:35:47;;;;;;;0.60;0.60;;;;;;;3.36;91.63;97390.53;5120572;27;20290;-69
2023/12/06 01:38:14;;;;;;;0.82;0.70;;;;;;;3.41;90.81;97392.69;5122392;27;20230;-69
2023/12/06 01:40:40;;;;;;;1.13;0.73;;;;;;;3.36;90.70;97395.06;5122478;27;20186;-69
2023/12/06 01:43:07;;;;;;;0.77;0.60;;;;;;;3.37;90.84;97389.53;5109841;27;20775;-70
2023/12/06 01:45:35;;;;;;;1.02;0.60;;;;;;;3.37;91.29;97400.25;5123765;27;20199;-68
2023/12/06 01:48:01;;;;;;;0.60;0.60;;;;;;;3.34;90.83;97405.09;5113222;27;20253;-70
2023/12/06 01:50:28;;;;;;;0.70;0.60;;;;;;;3.37;91.01;97402.91;5113497;27;20255;-70
2023/12/06 01:52:58;;;;;;;0.80;0.70;;;;;;;3.46;91.10;97393.03;5128741;27;20260;-69
2023/12/06 01:55:25;;;;;;;0.70;0.50;;;;;;;3.37;90.86;97400.25;5121407;27;20277;-69
2023/12/06 01:57:52;;;;;;;1.05;0.75;;;;;;;3.30;91.46;97404.59;5111800;27;20234;-69
2023/12/06 02:00:19;;;;;;;0.70;0.70;;;;;;;3.29;92.33;97399.41;5110920;27;20293;-69
2023/12/06 02:02:47;;;;;;;0.60;0.60;;;;;;;3.42;91.25;97410.41;5112826;27;20207;-70
2023/12/06 02:05:14;;;;;;;0.60;0.50;;;;;;;3.30;91.08;97406.44;5109855;27;20215;-69
2023/12/06 02:07:41;;;;;;;0.60;0.60;;;;;;;3.43;91.59;97405.91;5124756;27;20219;-69
2023/12/06 02:10:09;;;;;;;0.65;0.65;;;;;;;3.30;91.09;97406.44;5122265;27;20190;-69
2023/12/06 02:12:36;;;;;;;0.60;0.60;;;;;;;3.21;91.31;97408.31;5121061;27;20705;-69
2023/12/06 02:15:02;;;;;;;0.50;0.50;;;;;;;3.34;91.13;97411.28;5109215;27;20206;-69
2023/12/06 02:17:29;;;;;;;0.50;0.50;;;;;;;3.19;92.33;97412.19;5109500;27;20226;-69
2023/12/06 02:19:58;;;;;;;0.70;0.60;;;;;;;3.31;91.86;97411.63;5114637;27;20206;-69
2023/12/06 02:22:25;;;;;;;1.40;0.60;;;;;;;3.33;90.97;97412.28;5108776;27;20206;-69
2023/12/06 02:24:55;;;;;;;0.60;0.60;;;;;;;3.30;90.93;97415.28;5116642;27;20563;-69
2023/12/06 02:27:23;;;;;;;0.60;0.60;;;;;;;3.42;91.62;97414.94;5117608;27;20686;-69
2023/12/06 02:29:51;;;;;;;0.60;0.50;;;;;;;3.36;90.38;97409.25;5109892;27;20203;-69
2023/12/06 02:32:17;;;;;;;0.55;0.55;;;;;;;3.38;91.05;97411.78;5121949;27;20201;-70
2023/12/06 02:34:44;;;;;;;0.70;0.65;;;;;;;3.56;90.52;97406.19;5125415;27;20204;-69
2023/12/06 02:37:12;;;;;;;0.82;0.60;;;;;;;3.28;89.60;97389.72;5123185;27;20236;-70
2023/12/06 02:39:40;;;;;;;0.60;0.60;;;;;;;3.49;89.35;97416.75;5107393;27;20195;-69
2023/12/06 02:42:07;;;;;;;0.70;0.70;;;;;;;3.40;90.17;97415.09;5118558;27;20205;-69
2023/12/06 02:44:35;;;;;;;0.60;0.57;;;;;;;3.51;89.83;97413.91;5124475;27;20214;-69
2023/12/06 02:47:01;;;;;;;0.60;0.60;;;;;;;3.49;90.51;97410.56;5113406;27;20218;-69
2023/12/06 02:49:28;;;;;;;0.65;0.55;;;;;;;3.28;89.60;97361.16;5112440;27;20197;-70
2023/12/06 02:51:54;;;;;;;0.50;0.50;;;;;;;3.46;90.18;97413.59;5108493;28;20216;-69
2023/12/06 02:54:21;;;;;;;0.50;0.50;;;;;;;3.58;89.40;97407.66;5119012;27;20201;-69
2023/12/06 02:56:47;;;;;;;0.65;0.50;;;;;;;3.48;89.81;97406.22;5119690;27;20238;-70
2023/12/06 02:59:14;;;;;;;0.88;0.55;;;;;;;3.57;89.22;97405.19;5110620;27;20196;-69
2023/12/06 03:01:46;;;;;;;0.50;0.50;;;;;;;3.62;88.82;97405.47;5115488;27;20202;-70
2023/12/06 03:04:12;;;;;;;0.60;0.60;;;;;;;3.61;88.91;97406.47;5117758;27;20198;-71
2023/12/06 03:06:38;;;;;;;0.60;0.57;;;;;;;3.68;89.01;97410.13;5108637;28;20205;-70
2023/12/06 03:09:05;;;;;;;0.60;0.60;;;;;;;3.79;88.72;97404.41;5113926;27;20586;-70
2023/12/06 03:11:32;;;;;;;0.70;0.60;;;;;;;3.74;88.05;97412.13;5109550;28;20281;-69
2023/12/06 03:13:58;;;;;;;1.08;0.50;;;;;;;3.75;88.27;97407.59;5114607;27;20199;-69
2023/12/06 03:16:24;;;;;;;0.60;0.60;;;;;;;3.70;88.24;97413.47;5114033;28;20218;-69
2023/12/06 03:18:53;;;;;;;0.52;0.50;;;;;;;3.59;88.03;97408.50;5114315;27;20216;-69
2023/12/06 03:21:20;;;;;;;0.60;0.60;;;;;;;3.69;88.36;97427.84;5113716;28;20215;-69
2023/12/06 03:23:46;;;;;;;0.60;0.60;;;;;;;3.52;88.47;97407.56;5108539;28;20210;-69
2023/12/06 03:26:12;;;;;;;0.60;0.50;;;;;;;3.63;88.04;97410.66;5111923;28;20202;-70
2023/12/06 03:28:39;;;;;;;0.60;0.55;;;;;;;3.64;88.13;97411.50;5112194;28;20220;-69
2023/12/06 03:31:05;;;;;;;0.50;0.50;;;;;;;3.67;88.16;97416.50;5111809;27;20191;-69
2023/12/06 03:33:32;;;;;;;0.60;0.50;;;;;;;3.62;88.14;97409.00;5112524;28;20213;-70
2023/12/06 03:36:00;;;;;;;0.57;0.57;;;;;;;3.57;87.49;97408.69;5114912;28;20213;-69
2023/12/06 03:38:26;;;;;;;0.95;0.75;;;;;;;3.68;87.64;97415.50;5118955;28;20739;-70
2023/12/06 03:40:53;;;;;;;0.55;0.50;;;;;;;3.81;87.07;97404.22;5110741;27;20206;-69
2023/12/06 03:43:19;;;;;;;0.85;0.50;;;;;;;3.72;87.00;97414.13;5113592;28;20195;-71
2023/12/06 03:45:45;;;;;;;0.90;0.50;;;;;;;3.72;86.90;97416.81;5119560;28;20197;-70
2023/12/06 03:48:12;;;;;;;0.70;0.50;;;;;;;3.75;87.08;97403.09;5115908;27;20232;-70
2023/12/06 03:50:38;;;;;;;0.60;0.60;;;;;;;3.75;86.93;97405.75;5117184;28;20711;-70
2023/12/06 03:53:08;;;;;;;0.68;0.60;;;;;;;3.69;87.05;97414.47;5123083;28;20225;-70
2023/12/06 03:55:35;;;;;;;0.70;0.50;;;;;;;3.75;87.30;97408.44;5122431;28;20757;-70
2023/12/06 03:58:01;;;;;;;0.80;0.60;;;;;;;3.87;86.65;97411.56;5108207;27;20229;-70
2023/12/06 04:00:28;;;;;;;0.60;0.57;;;;;;;3.79;87.16;97428.50;5106069;28;20201;-70
2023/12/06 04:02:55;;;;;;;0.75;0.73;;;;;;;3.69;87.50;97419.84;5123161;28;20202;-71
2023/12/06 04:05:21;;;;;;;0.68;0.50;;;;;;;3.86;86.75;97410.72;5122973;27;20217;-70
2023/12/06 04:07:48;;;;;;;0.90;0.50;;;;;;;3.77;86.41;97411.78;5120458;27;20700;-71
2023/12/06 04:10:16;;;;;;;0.55;0.50;;;;;;;3.88;86.08;97408.72;5110677;27;20659;-70
2023/12/06 04:12:42;;;;;;;0.55;0.50;;;;;;;3.89;85.91;97407.69;5117697;27;20206;-71
2023/12/06 04:15:11;;;;;;;0.57;0.50;;;;;;;3.77;86.29;97416.28;5112222;27;20210;-70
2023/12/06 04:17:37;;;;;;;0.60;0.60;;;;;;;3.79;86.27;97408.91;5119911;27;20242;-70
2023/12/06 04:20:05;;;;;;;2.15;0.50;;;;;;;3.72;86.18;97414.97;5120349;27;20201;-70
2023/12/06 04:22:32;;;;;;;0.65;0.57;;;;;;;3.79;85.95;97416.94;5119243;27;20229;-70
2023/12/06 04:24:58;;;;;;;0.70;0.50;;;;;;;3.86;85.61;97421.44;5114624;27;20216;-70
2023/12/06 04:27:26;;;;;;;0.60;0.50;;;;;;;3.83;85.64;97423.63;5111516;28;20221;-70
2023/12/06 04:29:52;;;;;;;0.60;0.60;;;;;;;3.89;85.99;97431.78;5125284;27;20198;-70
2023/12/06 04:32:19;;;;;;;0.98;0.68;;;;;;;4.02;85.73;97437.41;5127801;27;20306;-70
2023/12/06 04:34:53;;;;;;;1.38;0.60;;;;;;;3.90;85.98;97432.63;5111900;27;20209;-70
2023/12/06 04:37:20;;;;;;;1.13;0.70;;;;;;;3.92;85.85;97435.94;5112113;27;20245;-70
2023/12/06 04:39:46;;;;;;;0.77;0.57;;;;;;;3.97;85.72;97437.06;5112056;27;20265;-71
2023/12/06 04:42:12;;;;;;;1.48;0.60;;;;;;;4.01;85.86;97435.72;5116695;27;20209;-70
2023/12/06 04:44:40;;;;;;;1.77;0.80;;;;;;;3.97;85.63;97441.59;5126516;27;20622;-70
2023/12/06 04:47:07;;;;;;;0.80;0.70;;;;;;;3.78;85.82;97445.56;5131655;27;20226;-70
2023/12/06 04:49:34;;;;;;;0.90;0.80;;;;;;;4.03;85.48;97439.06;5118048;27;20622;-72
2023/12/06 04:52:01;;;;;;;1.00;0.70;;;;;;;4.07;84.98;97444.06;5109580;27;20817;-72
2023/12/06 04:54:27;;;;;;;1.58;0.60;;;;;;;3.93;84.79;97433.09;5112233;27;20210;-71
2023/12/06 04:56:54;;;;;;;1.02;0.60;;;;;;;3.96;84.56;97440.75;5109864;27;20736;-71
2023/12/06 04:59:20;;;;;;;0.65;0.65;;;;;;;4.03;84.34;97449.78;5119622;27;20206;-71
2023/12/06 05:01:48;;;;;;;1.05;0.60;;;;;;;3.96;84.40;97451.47;5117480;27;20198;-72
2023/12/06 05:04:15;;;;;;;0.73;0.50;;;;;;;3.91;84.95;97453.00;5120790;27;20203;-71
2023/12/06 05:06:41;;;;;;;3.60;0.75;;;;;;;3.77;85.17;97465.28;5125831;27;20238;-72
2023/12/06 05:09:08;;;;;;;0.82;0.75;;;;;;;3.88;85.16;97459.56;5123301;27;20194;-72
2023/12/06 05:11:35;;;;;;;1.17;1.08;;;;;;;3.94;84.94;97453.50;5112111;27;20210;-72
2023/12/06 05:14:02;;;;;;;1.13;0.50;;;;;;;3.75;84.93;97461.13;5109301;27;20528;-71
2023/12/06 05:16:28;;;;;;;2.88;0.60;;;;;;;3.83;85.34;97469.13;5110633;27;20226;-72
2023/12/06 05:18:56;;;;;;;0.90;0.70;;;;;;;3.84;85.29;97470.78;5122590;27;20814;-71
2023/12/06 05:21:23;;;;;;;0.60;0.60;;;;;;;3.88;84.99;97472.94;5120362;27;20203;-75
2023/12/06 05:23:50;;;;;;;0.80;0.52;;;;;;;3.95;84.96;97463.19;5115848;27;20205;-73
2023/12/06 05:26:16;;;;;;;1.35;0.70;;;;;;;3.95;84.51;97473.91;5112807;27;20202;-72
2023/12/06 05:28:42;;;;;;;0.85;0.77;;;;;;;3.94;84.75;97466.03;5111564;27;20202;-72
2023/12/06 05:31:09;;;;;;;0.70;0.60;;;;;;;3.80;84.75;97461.44;5122234;27;20279;-73
2023/12/06 05:33:35;;;;;;;0.75;0.70;;;;;;;3.98;84.25;97475.38;5112254;27;20186;-73
2023/12/06 05:36:07;;;;;;;0.52;0.47;;;;;;;3.97;84.72;97468.38;5111663;27;20209;-73
2023/12/06 05:38:33;;;;;;;0.52;0.50;;;;;;;3.93;85.31;97465.19;5115496;27;20206;-74
2023/12/06 05:41:00;;;;;;;0.70;0.70;;;;;;;3.95;85.01;97470.38;5107239;27;20206;-72
2023/12/06 05:43:28;;;;;;;0.50;0.43;;;;;;;3.96;84.75;97470.22;5119332;27;20206;-72
2023/12/06 05:45:54;;;;;;;0.60;0.50;;;;;;;4.12;84.08;97465.78;5117607;27;20203;-76
2023/12/06 05:48:21;;;;;;;0.60;0.60;;;;;;;4.21;83.99;97462.06;5123131;27;20197;-73
2023/12/06 05:50:48;;;;;;;0.70;0.60;;;;;;;4.28;83.62;97463.84;5110612;27;20203;-72
2023/12/06 05:53:16;;;;;;;0.70;0.70;;;;;;;4.21;83.77;97470.09;5110241;27;20206;-73
2023/12/06 05:55:42;;;;;;;0.77;0.60;;;;;;;4.20;83.61;97466.59;5111516;27;20207;-80
2023/12/06 05:58:09;;;;;;;0.70;0.60;;;;;;;4.08;83.84;97470.66;5124812;27;20226;-74
2023/12/06 06:00:35;;;;;;;0.50;0.50;;;;;;;4.22;83.39;97477.13;5102691;27;20195;-74
2023/12/06 06:03:02;;;;;;;0.70;0.70;;;;;;;4.13;83.95;97472.81;5104735;27;20290;-74
2023/12/06 06:05:28;;;;;;;0.65;0.60;;;;;;;4.17;83.71;97476.81;5104131;27;20305;-74
2023/12/06 06:07:57;;;;;;;0.80;0.60;;;;;;;4.21;83.14;97473.63;5109551;27;20215;-74
2023/12/06 06:10:25;;;;;;;0.80;0.60;;;;;;;4.13;83.61;97472.81;5112803;27;20693;-74
2023/12/06 06:12:51;;;;;;;0.60;0.57;;;;;;;4.01;84.18;97473.19;5110459;27;20199;-74
2023/12/06 06:15:18;;;;;;;0.70;0.70;;;;;;;4.07;83.98;97478.88;5118862;27;20309;-74
2023/12/06 06:17:44;;;;;;;0.60;0.60;;;;;;;4.14;83.78;97478.00;5109112;27;20222;-74
2023/12/06 06:20:11;;;;;;;0.70;0.60;;;;;;;4.16;83.38;97480.50;5124885;27;20252;-74
2023/12/06 06:22:37;;;;;;;0.60;0.60;;;;;;;4.29;82.89;97483.44;5109340;27;20186;-74
2023/12/06 06:25:05;;;;;;;0.95;0.68;;;;;;;4.24;82.92;97488.47;5106793;27;20358;-74
2023/12/06 06:27:33;;;;;;;0.70;0.70;;;;;;;4.23;83.31;97481.44;5107764;27;20236;-74
2023/12/06 06:29:59;;;;;;;0.57;0.55;;;;;;;4.37;82.40;97483.38;5106137;27;20673;-74
2023/12/06 06:32:26;;;;;;;0.60;0.57;;;;;;;4.22;82.82;97490.53;5115189;27;20201;-77
2023/12/06 06:34:52;;;;;;;0.70;0.50;;;;;;;4.28;82.81;97484.44;5111496;27;20550;-73
2023/12/06 06:37:19;;;;;;;0.98;0.70;;;;;;;4.25;83.43;97495.50;5107490;27;20225;-74
2023/12/06 06:39:45;;;;;;;0.60;0.60;;;;;;;4.29;82.78;97518.25;5109161;27;20203;-74
2023/12/06 06:42:12;;;;;;;0.60;0.60;;;;;;;4.26;82.46;97513.22;5111201;27;20198;-74
2023/12/06 06:44:40;;;;;;;0.90;0.55;;;;;;;4.29;82.43;97500.34;5116185;27;20194;-74
2023/12/06 06:47:07;;;;;;;0.80;0.60;;;;;;;4.32;82.09;97501.81;5114737;27;20218;-74
2023/12/06 06:49:34;;;;;;;1.02;0.70;;;;;;;4.35;82.26;97504.16;5108273;27;20308;-73
2023/12/06 06:52:00;;;;;;;1.70;0.65;;;;;;;4.43;81.96;97503.28;5109005;27;20207;-74
2023/12/06 06:54:27;;;;;;;0.85;0.70;;;;;;;4.31;82.45;97506.34;5114939;27;20205;-74
2023/12/06 06:56:54;;;;;;;0.80;0.80;;;;;;;4.41;82.17;97511.50;5110814;27;20223;-74
2023/12/06 06:59:20;;;;;;;0.80;0.70;;;;;;;4.43;81.77;97517.50;5109505;27;20222;-74
2023/12/06 07:01:48;;;;;;;0.90;0.90;;;;;;;4.38;81.97;97528.75;5107260;27;20205;-74
2023/12/06 07:04:15;;;;;;;0.60;0.60;;;;;;;4.41;82.07;97522.22;5116066;27;20210;-74
2023/12/06 07:06:41;;;;;;;0.73;0.70;;;;;;;4.45;81.84;97518.16;5112666;27;20222;-74
2023/12/06 07:09:08;;;;;;;0.70;0.70;;;;;;;4.48;81.77;97523.19;5116073;27;20191;-74
2023/12/06 07:11:34;;;;;;;0.75;0.75;;;;;;;4.33;82.19;97527.59;5109584;27;20227;-74
2023/12/06 07:14:03;;;;;;;0.70;0.70;;;;;;;4.27;82.08;97539.00;5114230;27;20216;-75
2023/12/06 07:16:29;;;;;;;0.70;0.70;;;;;;;4.48;82.03;97535.75;5123344;27;20214;-74
2023/12/06 07:18:57;;;;;;;1.10;0.75;;;;;;;4.36;82.18;97540.66;5111707;27;20229;-74
2023/12/06 07:21:25;;;;;;;0.82;0.77;;;;;;;4.19;82.37;97544.44;5109570;27;20639;-74
2023/12/06 07:23:51;;;;;;;0.80;0.73;;;;;;;4.41;81.49;97542.81;5118575;27;20190;-73
2023/12/06 07:26:18;;;;;;;0.90;0.80;;;;;;;4.39;81.64;97545.66;5107042;27;20214;-74
2023/12/06 07:28:45;;;;;;;0.95;0.70;;;;;;;4.36;81.96;97548.69;5110888;27;20201;-73
2023/12/06 07:31:11;;;;;;;1.23;0.90;;;;;;;4.41;82.10;97553.50;5110245;27;20511;-74
2023/12/06 07:33:39;;;;;;;0.73;0.70;;;;;;;4.51;81.73;97565.69;5109432;28;20199;-74
2023/12/06 07:36:10;;;;;;;0.73;0.70;;;;;;;4.47;81.62;97568.91;5106107;27;20218;-74
2023/12/06 07:38:36;;;;;;;0.80;0.70;;;;;;;4.51;81.63;97572.91;5114328;27;20221;-74
2023/12/06 07:41:03;;;;;;;0.90;0.90;;;;;;;4.67;81.79;97581.66;5114959;27;20206;-74
2023/12/06 07:43:30;;;;;;;1.13;0.90;;;;;;;4.80;81.53;97586.47;5121481;27;20573;-74
2023/12/06 07:45:56;;;;;;;2.00;0.98;;;;;;;4.67;81.78;97584.34;5112843;27;20229;-74
2023/12/06 07:48:23;;;;;;;1.20;1.10;;;;;;;4.47;82.24;97593.84;5112128;27;20187;-74
2023/12/06 07:50:50;;;;;;;1.50;1.40;;;;;;;4.24;83.72;97590.25;5114105;27;20647;-74
2023/12/06 07:53:18;;;;;;;2.83;2.63;;;;;;;4.18;83.75;97594.47;5109362;27;20202;-74
2023/12/06 07:55:45;;;;;;;3.83;3.53;;;;;;;4.20;84.05;97599.66;5113843;27;21027;-74
2023/12/06 07:58:11;;;;;;;5.32;4.90;;;;;;;4.21;84.43;97612.03;5115681;27;20218;-74
2023/12/06 08:00:38;;;;;;;6.25;5.75;;;;;;;4.22;83.66;97603.00;5114563;27;20195;-74
2023/12/06 08:03:04;;;;;;;5.88;5.40;;;;;;;4.21;83.73;97604.84;5113036;27;20285;-73
2023/12/06 08:05:31;;;;;;;7.47;6.78;;;;;;;4.19;83.20;97606.84;5115438;27;20205;-73
2023/12/06 08:07:57;;;;;;;7.75;7.05;;;;;;;4.20;83.21;97615.72;5112894;27;20282;-80
2023/12/06 08:10:28;;;;;;;6.55;6.03;;;;;;;4.05;83.46;97611.06;5118875;27;20215;-80
2023/12/06 08:12:55;;;;;;;6.70;6.20;;;;;;;4.01;83.79;97614.25;5123991;27;20194;-80
2023/12/06 08:15:22;;;;;;;7.55;6.95;;;;;;;3.91;83.92;97627.81;5117875;27;20236;-80
2023/12/06 08:17:49;;;;;;;8.57;7.78;;;;;;;3.95;83.77;97623.81;5117142;27;20359;-79
2023/12/06 08:20:15;;;;;;;9.10;8.40;;;;;;;3.99;83.99;97629.66;5129605;27;20298;-80
2023/12/06 08:22:42;;;;;;;8.30;7.55;;;;;;;4.16;83.53;97635.81;5121380;27;20217;-74
2023/12/06 08:25:11;;;;;;;8.40;7.70;;;;;;;4.12;83.54;97634.50;5115346;27;20680;-75
2023/12/06 08:27:39;;;;;;;9.10;8.30;;;;;;;4.06;nan;97641.34;5129522;27;20705;-75
2023/12/06 08:30:07;;;;;;;9.02;8.23;;;;;;;4.09;83.49;97656.25;5115459;27;20551;-75
2023/12/06 08:32:33;;;;;;;10.40;9.50;;;;;;;3.87;84.33;97642.59;5115490;27;20210;-79
2023/12/06 08:35:01;;;;;;;9.98;9.07;;;;;;;3.77;84.47;97644.59;5123886;27;20210;-79
2023/12/06 08:37:27;;;;;;;10.52;9.60;;;;;;;3.88;84.68;97648.78;5122721;27;20279;-77
2023/12/06 08:39:54;;;;;;;11.00;9.93;;;;;;;3.80;84.76;97644.25;5125060;27;20234;-78
2023/12/06 08:42:20;;;;;;;10.55;9.65;;;;;;;3.74;85.09;97646.78;5124428;27;20207;-77
2023/12/06 08:44:48;;;;;;;11.45;10.45;;;;;;;3.77;84.99;97662.50;5130700;27;20279;-78
2023/12/06 08:47:14;;;;;;;11.63;10.52;;;;;;;3.73;85.34;97662.00;5115230;27;20211;-77
2023/12/06 08:49:41;;;;;;;11.02;10.13;;;;;;;3.70;85.59;97656.97;5112370;27;20205;-77
2023/12/06 08:52:08;;;;;;;10.95;9.95;;;;;;;3.63;85.53;97672.03;5112059;27;20209;-78
2023/12/06 08:54:35;;;;;;;12.57;11.27;;;;;;;3.71;85.45;97664.00;5126682;27;20224;-76
2023/12/06 08:57:01;;;;;;;10.27;9.38;;;;;;;3.68;85.26;97675.03;5112246;28;20586;-77
2023/12/06 08:59:28;;;;;;;12.38;11.27;;;;;;;3.70;85.94;97668.50;5110620;28;20321;-77
2023/12/06 09:01:55;;;;;;;11.73;10.73;;;;;;;3.71;85.32;97680.06;5116719;27;20217;-77
2023/12/06 09:04:22;;;;;;;12.48;11.38;;;;;;;3.67;85.31;97679.53;5113778;27;20194;-77
2023/12/06 09:06:49;;;;;;;12.35;11.15;;;;;;;3.55;85.46;97672.03;5108576;27;20721;-77
2023/12/06 09:09:17;;;;;;;12.25;11.20;;;;;;;3.63;85.18;97678.22;5109023;27;20206;-77
2023/12/06 09:11:43;;;;;;;11.88;10.77;;;;;;;3.68;85.32;97685.72;5115803;27;20199;-77
2023/12/06 09:14:10;;;;;;;11.32;10.32;;;;;;;3.66;85.21;97690.41;5114904;27;20558;-79
2023/12/06 09:16:38;;;;;;;11.52;10.43;;;;;;;3.58;85.73;97699.28;5120889;27;20225;-76
2023/12/06 09:19:05;;;;;;;11.68;10.65;;;;;;;3.59;86.02;97702.78;5122767;27;20260;-79
2023/12/06 09:21:40;;;;;;;11.52;10.50;;;;;;;3.59;86.25;97697.44;5117327;27;20191;-79
2023/12/06 09:24:08;;;;;;;12.55;11.45;;;;;;;3.69;85.96;97704.31;5118352;27;20745;-78
2023/12/06 09:26:34;;;;;;;11.75;10.75;;;;;;;3.66;86.41;97706.47;5125551;27;20226;-78
2023/12/06 09:29:02;;;;;;;12.57;11.30;;;;;;;3.63;86.74;97714.81;5111034;27;20202;-78
2023/12/06 09:31:28;;;;;;;13.75;12.45;;;;;;;3.74;86.01;97717.19;5116450;27;20199;-78
2023/12/06 09:33:55;;;;;;;13.38;12.02;;;;;;;3.61;86.78;97708.81;5110073;27;20540;-78
2023/12/06 09:36:22;;;;;;;13.95;12.65;;;;;;;3.62;87.00;97716.66;5115226;27;20250;-78
2023/12/06 09:38:49;;;;;;;13.98;12.68;;;;;;;3.58;86.56;97720.66;5109598;27;20682;-78
2023/12/06 09:41:18;;;;;;;13.93;12.63;;;;;;;3.67;86.77;97730.38;5108170;27;20198;-78
2023/12/06 09:43:44;;;;;;;15.80;14.30;;;;;;;3.76;86.35;97717.00;5113171;27;20198;-78
2023/12/06 09:46:12;;;;;;;14.57;13.25;;;;;;;3.65;86.24;97720.84;5116007;27;20210;-78
2023/12/06 09:48:40;;;;;;;14.85;13.45;;;;;;;3.69;86.14;97727.53;5111103;27;20205;-78
2023/12/06 09:51:07;;;;;;;14.57;13.15;;;;;;;3.57;86.34;97724.38;5111567;27;20206;-77
2023/12/06 09:53:34;;;;;;;15.15;13.65;;;;;;;3.65;85.12;97723.53;5117986;27;20202;-78
2023/12/06 09:56:01;;;;;;;14.75;13.40;;;;;;;3.60;85.26;97725.84;5109024;27;20214;-79
2023/12/06 09:58:27;;;;;;;15.13;13.68;;;;;;;3.62;84.53;97729.22;5127775;27;20210;-78
2023/12/06 10:00:54;;;;;;;14.90;13.50;;;;;;;3.48;85.25;97732.56;5115729;27;20205;-79
2023/12/06 10:03:22;;;;;;;14.90;13.50;;;;;;;3.45;85.08;97732.88;5110640;27;20708;-77
2023/12/06 10:05:54;;;;;;;15.10;13.80;;;;;;;3.43;85.02;97735.72;5121777;27;20226;-79
2023/12/06 10:08:21;;;;;;;15.25;13.73;;;;;;;3.55;84.60;97733.56;5120823;27;20206;-79
2023/12/06 10:10:49;;;;;;;14.02;12.73;;;;;;;3.49;85.51;97739.59;5127350;27;20198;-78
2023/12/06 10:13:15;;;;;;;15.05;13.65;;;;;;;3.52;85.12;97750.78;5110521;27;20206;-79
2023/12/06 10:15:42;;;;;;;14.10;12.80;;;;;;;3.52;84.58;97745.44;5108817;27;20215;-79
2023/12/06 10:18:11;;;;;;;14.18;12.77;;;;;;;3.65;84.31;97743.09;5112877;27;20280;-79
2023/12/06 10:20:37;;;;;;;12.13;11.02;;;;;;;3.67;83.80;97737.56;5112013;27;20696;-78
2023/12/06 10:23:04;;;;;;;13.15;11.93;;;;;;;3.61;83.81;97741.75;5120354;27;20286;-78
2023/12/06 10:25:38;;;;;;;14.18;12.73;;;;;;;3.79;83.31;97746.97;5110630;27;20217;-79
2023/12/06 10:28:06;;;;;;;13.57;12.27;;;;;;;3.73;83.13;97750.28;5106828;27;20285;-77
2023/12/06 10:30:32;;;;;;;13.25;12.05;;;;;;;3.72;83.30;97754.81;5108221;27;20203;-77
2023/12/06 10:33:00;;;;;;;13.35;12.05;;;;;;;3.66;83.44;97759.97;5111798;27;20199;-81
2023/12/06 10:35:26;;;;;;;12.90;11.60;;;;;;;3.60;83.48;97747.25;5109107;27;20197;-78
2023/12/06 10:37:53;;;;;;;13.35;12.05;;;;;;;3.78;82.79;97749.81;5107803;27;20198;-79
2023/12/06 10:40:23;;;;;;;14.40;13.10;;;;;;;3.79;82.53;97752.31;5113766;27;20222;-77
2023/12/06 10:42:52;;;;;;;13.80;12.50;;;;;;;3.65;82.92;97761.81;5120559;27;20206;-77
2023/12/06 10:45:22;;;;;;;12.95;11.75;;;;;;;3.70;82.74;97753.31;5109718;27;20719;-77
2023/12/06 10:47:49;;;;;;;13.20;12.00;;;;;;;3.73;82.69;97752.97;5120447;27;20553;-77
2023/12/06 10:50:17;;;;;;;12.05;10.95;;;;;;;3.88;82.32;97751.31;5108672;27;20270;-76
2023/12/06 10:52:45;;;;;;;11.80;10.70;;;;;;;3.92;82.31;97755.31;5117003;27;20226;-76
2023/12/06 10:55:11;;;;;;;12.88;11.77;;;;;;;3.92;82.33;97759.81;5123811;27;20202;-77
2023/12/06 10:57:39;;;;;;;12.13;11.02;;;;;;;3.82;82.18;97746.63;5120339;27;20234;-77
2023/12/06 11:00:07;;;;;;;11.90;10.70;;;;;;;3.75;81.91;97750.97;5126512;27;20218;-77
2023/12/06 11:02:35;;;;;;;11.90;10.90;;;;;;;3.75;82.11;97753.66;5106604;27;20205;-83
2023/12/06 11:05:05;;;;;;;11.10;10.07;;;;;;;3.71;82.35;97765.69;5110614;27;20282;-79
2023/12/06 11:07:42;;;;;;;11.55;10.55;;;;;;;3.53;82.63;97751.63;5116143;27;20198;-79
2023/12/06 11:10:21;;;;;;;11.60;10.60;;;;;;;3.55;82.47;97765.69;5116607;27;20221;-79
2023/12/06 11:12:57;;;;;;;10.77;9.85;;;;;;;3.65;82.07;97766.34;5105629;27;20715;-78
2023/12/06 11:15:34;;;;;;;10.90;10.00;;;;;;;3.74;81.89;97764.50;5106599;27;20222;-78
2023/12/06 11:18:10;;;;;;;11.93;10.70;;;;;;;3.71;81.96;97766.53;5105351;27;20210;-74
2023/12/06 11:20:38;;;;;;;11.55;10.45;;;;;;;3.72;81.93;97767.34;5104510;27;20229;-82
2023/12/06 11:23:04;;;;;;;11.80;10.70;;;;;;;3.81;81.83;97757.50;5109619;27;20206;-79
2023/12/06 11:25:31;;;;;;;10.60;9.55;;;;;;;3.92;81.09;97757.16;5107274;27;20219;-79
2023/12/06 11:27:58;;;;;;;10.73;9.73;;;;;;;3.86;82.02;97769.38;5114013;27;20543;-78
2023/12/06 11:30:25;;;;;;;12.13;11.02;;;;;;;3.81;81.74;97765.53;5113612;27;20699;-77
2023/12/06 11:32:56;;;;;;;12.10;11.00;;;;;;;3.98;81.11;97773.38;5114085;27;20199;-76
2023/12/06 11:35:25;;;;;;;11.52;10.43;;;;;;;4.05;80.69;97777.06;5115299;27;20225;-80